Amapa, Brazil
Current Conditions -  °F | °C
As of 9:00 PM on Wednesday 22 Oct 2014 (Local Time) from SBMQ Reporting Station
Broken Clouds Broken Clouds  
Wind Chill: 84°   Ceiling: 8000
Heat Index: 92°   Visibility: 6mi
Dew Point: 75°   Wind: 9mph
Humidity: 74%   Direction: 50°NE
Pressure: 29.88"   Gusts: NA
Location:  2.02°N, 50.78°W
Report Text: SBMQ 230000Z 05008KT 9999 SCT015 BKN080 29/24 Q1012
Loading
Personal Weather Stations






























Interactive Weather Map
Tropical Storm Tracking
New forecast layout! Learn more

10-Day Weather Forecast

Advertisements
Track Severe Weather on mobile